Terminal Aerodrome Forecast
Issued by NWS North Platte, NE

Home | Current Version | Previous Version | Graphics & Text | Print | Product List | Glossary On
Versions: 1 2 3 4 5 6 7 8 9 10 11 12 13 14 15 16 17 18 19 20 21 22
243
FTUS43 KLBF 230541
TAFVTN
TAF
KVTN 230541Z 2306/2406 02012KT P6SM OVC010
     FM230800 03012KT P6SM VCSH OVC008
     FM231000 04013G18KT 6SM -SN OVC008
     FM231200 04015G23KT 4SM -SN BLSN OVC004
     FM231500 04017G24KT 1SM -SN BLSN OVC004
     FM231800 03017G24KT 1/2SM SN BLSN OVC004=

USA.gov is the U.S. government's official web portal to all federal, state and local government web resources and services.